createdAt,value
2022-10-01T00:00:35.702Z,10.15
2022-10-01T00:03:04.082Z,6.57
2022-10-01T00:05:32.373Z,5.20
2022-10-01T00:08:00.738Z,5.72
2022-10-01T00:10:30.609Z,5.30
2022-10-01T00:13:08.986Z,4.97
2022-10-01T00:15:41.303Z,5.93
2022-10-01T00:18:19.949Z,5.73
2022-10-01T00:20:58.957Z,6.18
2022-10-01T00:23:27.260Z,5.95
2022-10-01T00:25:55.619Z,8.32
2022-10-01T00:28:24.015Z,5.63
2022-10-01T00:30:52.394Z,5.57
2022-10-01T00:33:20.669Z,6.25
2022-10-01T00:35:54.737Z,5.53
2022-10-01T00:38:25.903Z,6.43
2022-10-01T00:40:54.146Z,7.28
2022-10-01T00:43:26.712Z,6.50
2022-10-01T00:46:07.079Z,6.50
2022-10-01T00:48:38.432Z,8.07
2022-10-01T00:51:07.021Z,6.88
2022-10-01T00:53:35.874Z,6.20
2022-10-01T00:56:05.766Z,5.38
2022-10-01T00:58:44.350Z,8.35
2022-10-01T01:01:18.022Z,8.68
2022-10-01T01:03:57.009Z,6.90
2022-10-01T01:06:25.384Z,6.05
2022-10-01T01:09:04.544Z,6.25
2022-10-01T01:11:37.906Z,6.50
2022-10-01T01:14:20.271Z,7.65
2022-10-01T01:17:11.231Z,10.43
2022-10-01T01:19:50.901Z,7.60
2022-10-01T01:22:22.323Z,7.72
2022-10-01T01:24:52.242Z,9.20
2022-10-01T01:27:26.375Z,7.57
2022-10-01T01:30:00.016Z,9.00
2022-10-01T01:32:31.741Z,11.20
2022-10-01T01:35:07.388Z,14.77
2022-10-01T01:37:38.455Z,12.50
2022-10-01T01:40:10.621Z,9.15
2022-10-01T01:42:41.524Z,9.25
2022-10-01T01:45:11.381Z,9.48
2022-10-01T01:47:40.291Z,8.75
2022-10-01T01:50:09.051Z,10.35
2022-10-01T01:52:38.673Z,11.85
2022-10-01T01:55:08.874Z,14.85
2022-10-01T01:57:39.330Z,19.80
2022-10-01T02:00:08.047Z,11.02
2022-10-01T02:02:38.471Z,9.73
2022-10-01T02:05:11.034Z,23.70
2022-10-01T02:11:02.893Z,9.95
2022-10-01T02:13:50.571Z,12.37
2022-10-01T02:18:55.750Z,14.52
2022-10-01T02:21:28.705Z,12.25
2022-10-01T02:23:59.967Z,11.13
2022-10-01T02:26:29.917Z,11.63
2022-10-01T02:29:01.251Z,15.55
2022-10-01T02:31:30.212Z,12.10
2022-10-01T02:33:59.727Z,12.15
2022-10-01T02:36:41.554Z,16.80
2022-10-01T02:39:11.064Z,18.10
2022-10-01T02:41:46.345Z,11.82
2022-10-01T02:44:16.520Z,11.45
2022-10-01T02:46:58.502Z,16.77
2022-10-01T02:49:32.104Z,15.50
2022-10-01T02:52:22.315Z,19.88
2022-10-01T02:55:07.757Z,27.17
2022-10-01T02:57:36.686Z,19.75
2022-10-01T03:00:17.123Z,19.10
2022-10-01T03:02:51.519Z,14.52
2022-10-01T03:05:30.038Z,19.08
2022-10-01T03:07:58.395Z,16.92
2022-10-01T03:10:44.674Z,19.45
2022-10-01T03:13:15.246Z,24.52
2022-10-01T03:15:46.186Z,18.00
2022-10-01T03:18:14.667Z,29.15
2022-10-01T03:20:43.167Z,16.42
2022-10-01T03:23:11.521Z,23.35
2022-10-01T03:25:39.826Z,21.38
2022-10-01T03:28:08.219Z,12.32
2022-10-01T03:30:37.204Z,16.52
2022-10-01T03:33:06.064Z,13.93
2022-10-01T03:35:35.109Z,22.05
2022-10-01T03:38:03.680Z,14.27
2022-10-01T03:40:42.834Z,13.63
2022-10-01T03:43:11.849Z,19.70
2022-10-01T03:45:49.728Z,15.50
2022-10-01T03:48:18.788Z,17.25
2022-10-01T03:50:57.786Z,15.85
2022-10-01T03:53:27.558Z,16.02
2022-10-01T03:55:56.109Z,24.90
2022-10-01T03:58:34.620Z,28.48
2022-10-01T04:01:04.572Z,24.80
2022-10-01T04:03:32.924Z,29.17
2022-10-01T04:06:02.569Z,20.90
2022-10-01T04:08:36.349Z,29.73
2022-10-01T04:11:06.184Z,25.85
2022-10-01T04:13:35.074Z,31.33
2022-10-01T04:16:04.380Z,31.63
2022-10-01T04:18:38.985Z,31.73
2022-10-01T04:21:07.548Z,33.25
2022-10-01T04:23:35.994Z,31.40
2022-10-01T04:26:14.447Z,35.33
2022-10-01T04:28:45.555Z,32.65
2022-10-01T04:31:27.904Z,32.27
2022-10-01T04:33:57.512Z,43.35
2022-10-01T04:36:26.250Z,24.67
2022-10-01T04:38:59.406Z,32.92
2022-10-01T04:41:32.428Z,29.23
2022-10-01T04:44:01.384Z,25.60
2022-10-01T04:46:30.810Z,32.90
2022-10-01T04:48:59.371Z,30.73
2022-10-01T04:51:27.752Z,33.05
2022-10-01T04:53:56.201Z,27.60
2022-10-01T04:56:24.605Z,30.17
2022-10-01T04:58:53.018Z,31.73
2022-10-01T05:01:21.687Z,21.52
2022-10-01T05:03:50.126Z,25.05
2022-10-01T05:06:18.493Z,27.25
2022-10-01T05:08:48.689Z,22.42
2022-10-01T05:11:17.022Z,18.55
2022-10-01T05:13:45.517Z,27.35
2022-10-01T05:16:23.670Z,24.90
2022-10-01T05:18:52.294Z,25.25
2022-10-01T05:21:20.931Z,28.87
2022-10-01T05:23:59.263Z,23.80
2022-10-01T05:26:27.686Z,25.00
2022-10-01T05:28:56.152Z,21.08
2022-10-01T05:31:36.544Z,22.92
2022-10-01T05:34:10.607Z,22.67
2022-10-01T05:36:39.162Z,26.98
2022-10-01T05:39:18.251Z,22.58
2022-10-01T05:41:47.683Z,23.20
2022-10-01T05:44:22.267Z,33.15
2022-10-01T05:46:53.236Z,24.92
2022-10-01T05:49:30.184Z,14.65
2022-10-01T05:52:10.495Z,27.60
2022-10-01T05:54:39.083Z,17.92
2022-10-01T05:57:13.445Z,19.60
2022-10-01T05:59:42.125Z,17.58
2022-10-01T06:02:14.068Z,20.67
2022-10-01T06:04:42.829Z,18.88
2022-10-01T06:07:11.350Z,16.08
2022-10-01T06:09:41.934Z,19.30
2022-10-01T06:12:10.874Z,17.77
2022-10-01T06:14:40.621Z,11.15
2022-10-01T06:17:09.466Z,10.10
2022-10-01T06:19:39.210Z,15.98
2022-10-01T06:22:07.674Z,14.55
2022-10-01T06:24:36.761Z,14.60
2022-10-01T06:27:05.800Z,18.13
2022-10-01T06:29:34.238Z,17.67
2022-10-01T06:32:03.654Z,14.32
2022-10-01T06:34:32.279Z,17.85
2022-10-01T06:37:02.029Z,16.77
2022-10-01T06:39:30.428Z,16.98
2022-10-01T06:41:59.199Z,19.03
2022-10-01T06:44:27.740Z,17.77
2022-10-01T06:47:01.306Z,16.02
2022-10-01T06:49:36.487Z,11.18
2022-10-01T06:52:23.384Z,11.48
2022-10-01T06:54:52.567Z,11.70
2022-10-01T06:57:21.069Z,8.93
2022-10-01T06:59:52.014Z,4.70
2022-10-01T07:02:28.378Z,6.40
2022-10-01T07:05:01.955Z,51.05
2022-10-01T07:07:42.457Z,28.77
2022-10-01T07:10:13.624Z,46.38
2022-10-01T07:12:43.635Z,16.05
2022-10-01T07:15:18.095Z,6.78
2022-10-01T07:17:53.712Z,7.05
2022-10-01T07:20:30.804Z,8.57
2022-10-01T07:23:00.395Z,13.80
2022-10-01T07:25:29.423Z,11.48
2022-10-01T07:27:59.353Z,20.08
2022-10-01T07:30:28.325Z,33.17
2022-10-01T07:32:56.952Z,29.73
2022-10-01T07:35:28.883Z,36.47
2022-10-01T07:37:57.930Z,31.70
2022-10-01T07:40:28.529Z,24.05
2022-10-01T07:42:57.001Z,23.40
2022-10-01T07:45:36.002Z,21.50
2022-10-01T07:48:07.844Z,30.65
2022-10-01T07:50:37.971Z,18.48
2022-10-01T07:53:06.346Z,26.98
2022-10-01T07:55:34.922Z,27.60
2022-10-01T07:58:08.598Z,15.93
2022-10-01T08:00:37.020Z,10.25
2022-10-01T08:03:05.733Z,9.35
2022-10-01T08:05:36.521Z,15.05
2022-10-01T08:08:07.553Z,21.65
2022-10-01T08:10:37.219Z,11.50
2022-10-01T08:13:09.194Z,12.68
2022-10-01T08:15:40.019Z,14.90
2022-10-01T08:18:08.758Z,15.02
2022-10-01T08:20:39.835Z,11.75
2022-10-01T08:23:10.777Z,13.70
2022-10-01T08:25:40.146Z,13.80
2022-10-01T08:28:09.697Z,7.93
2022-10-01T08:30:40.173Z,8.43
2022-10-01T08:33:10.552Z,21.77
2022-10-01T08:35:39.822Z,22.60
2022-10-01T08:38:08.375Z,9.38
2022-10-01T08:40:41.573Z,8.85
2022-10-01T08:46:18.604Z,18.45
2022-10-01T08:49:01.245Z,28.23
2022-10-01T08:51:36.063Z,9.48
2022-10-01T08:54:05.122Z,11.20
2022-10-01T08:56:39.910Z,13.02
2022-10-01T08:59:27.568Z,31.20
2022-10-01T09:04:34.468Z,15.60
2022-10-01T09:07:09.454Z,13.82
2022-10-01T09:09:52.040Z,11.65
2022-10-01T09:12:26.715Z,17.05
2022-10-01T09:15:05.979Z,11.52
2022-10-01T09:17:45.145Z,20.05
2022-10-01T09:20:23.300Z,20.55
2022-10-01T09:22:54.396Z,19.17
2022-10-01T09:25:35.681Z,22.50
2022-10-01T09:28:11.968Z,18.00
2022-10-01T09:31:08.571Z,46.85
2022-10-01T09:33:38.381Z,21.47
2022-10-01T09:36:06.879Z,29.50
2022-10-01T09:38:39.014Z,24.65
2022-10-01T09:41:08.669Z,17.60
2022-10-01T09:43:38.729Z,28.42
2022-10-01T09:46:17.880Z,18.45
2022-10-01T09:49:10.486Z,22.25
2022-10-01T09:51:40.732Z,25.23
2022-10-01T09:54:21.406Z,16.77
2022-10-01T09:56:58.961Z,16.35
2022-10-01T09:59:42.758Z,10.55
2022-10-01T10:02:24.434Z,10.25
2022-10-01T10:05:02.119Z,14.70
2022-10-01T10:07:33.029Z,61.33
2022-10-01T10:10:12.635Z,31.60
2022-10-01T10:12:46.294Z,9.13
2022-10-01T10:15:19.412Z,6.60
2022-10-01T10:17:52.424Z,9.45
2022-10-01T10:20:26.178Z,10.75
2022-10-01T10:22:54.853Z,10.43
2022-10-01T10:25:24.875Z,7.05
2022-10-01T10:27:56.508Z,10.38
2022-10-01T10:30:25.343Z,20.73
2022-10-01T10:33:05.838Z,25.48
2022-10-01T10:35:34.501Z,17.80
2022-10-01T10:38:03.043Z,31.90
2022-10-01T10:40:40.444Z,12.93
2022-10-01T10:43:23.189Z,18.48
2022-10-01T10:45:56.631Z,17.70
2022-10-01T10:48:41.350Z,16.95
2022-10-01T10:51:10.993Z,11.10
2022-10-01T10:53:46.042Z,16.50
2022-10-01T10:56:24.661Z,9.82
2022-10-01T10:58:54.156Z,11.20
2022-10-01T11:01:29.421Z,12.65
2022-10-01T11:03:59.053Z,13.98
2022-10-01T11:06:27.683Z,10.38
2022-10-01T11:09:01.039Z,17.67
2022-10-01T11:15:19.684Z,12.90
2022-10-01T11:18:02.681Z,17.13
2022-10-01T11:20:39.289Z,25.73
2022-10-01T11:23:16.119Z,12.75
2022-10-01T11:28:30.031Z,23.25
2022-10-01T11:31:10.745Z,38.30
2022-10-01T11:33:59.733Z,28.05
2022-10-01T11:36:31.063Z,21.58
2022-10-01T11:39:04.274Z,11.48
2022-10-01T11:41:42.453Z,19.60
2022-10-01T11:44:16.905Z,31.08
2022-10-01T11:46:52.084Z,31.60
2022-10-01T11:49:20.539Z,10.18
2022-10-01T11:51:51.315Z,33.60
2022-10-01T11:54:27.071Z,131.57
2022-10-01T11:57:14.986Z,27.92
2022-10-01T11:59:50.349Z,73.80
2022-10-01T12:02:28.554Z,42.75
2022-10-01T12:05:09.377Z,89.80
2022-10-01T12:07:50.151Z,25.60
2022-10-01T12:10:22.209Z,41.25
2022-10-01T12:12:55.914Z,27.98
2022-10-01T12:15:29.505Z,19.13
2022-10-01T12:18:06.841Z,23.85
2022-10-01T12:20:35.197Z,34.30
2022-10-01T12:23:05.595Z,23.73
2022-10-01T12:25:55.030Z,25.30
2022-10-01T12:28:32.075Z,74.07
2022-10-01T12:31:13.465Z,53.25
2022-10-01T12:33:57.447Z,28.23
2022-10-01T12:36:43.750Z,11.00
2022-10-01T12:39:12.316Z,13.23
2022-10-01T12:44:57.880Z,44.42
2022-10-01T12:47:38.673Z,33.80
2022-10-01T12:53:44.040Z,81.68
2022-10-01T12:56:30.484Z,42.78
2022-10-01T13:02:10.851Z,44.97
2022-10-01T13:04:57.381Z,54.95
2022-10-01T13:07:37.939Z,58.60
2022-10-01T13:10:24.944Z,40.40
2022-10-01T13:13:11.459Z,28.85
2022-10-01T13:15:55.130Z,35.67
2022-10-01T13:18:32.648Z,26.92
2022-10-01T13:21:07.402Z,23.52
2022-10-01T13:23:51.653Z,34.65
2022-10-01T13:26:29.203Z,33.00
2022-10-01T13:29:13.775Z,21.20
2022-10-01T13:31:57.234Z,22.80
2022-10-01T13:34:39.924Z,50.00
2022-10-01T13:37:17.111Z,40.22
2022-10-01T13:39:48.174Z,37.75
2022-10-01T13:42:46.239Z,26.98
2022-10-01T13:48:25.056Z,30.85
2022-10-01T13:51:03.393Z,29.92
2022-10-01T13:53:38.461Z,28.48
2022-10-01T13:56:06.962Z,31.72
2022-10-01T13:58:40.387Z,41.92
2022-10-01T14:01:18.774Z,76.03
2022-10-01T14:04:05.501Z,76.07
2022-10-01T14:06:37.078Z,107.40
2022-10-01T14:09:24.359Z,102.57
2022-10-01T14:12:38.656Z,108.10
2022-10-01T14:15:38.220Z,112.47
2022-10-01T14:18:16.895Z,107.45
2022-10-01T14:21:03.553Z,156.25
2022-10-01T14:26:52.926Z,203.55
2022-10-01T14:29:39.894Z,335.30
2022-10-01T14:32:11.144Z,275.88
2022-10-01T14:34:42.854Z,333.92
2022-10-01T14:37:18.239Z,257.38
2022-10-01T14:39:46.954Z,105.82
2022-10-01T14:42:18.751Z,86.60
2022-10-01T14:44:48.249Z,87.97
2022-10-01T14:47:20.798Z,120.50
2022-10-01T14:49:49.825Z,124.25
2022-10-01T14:52:30.818Z,138.52
2022-10-01T14:55:13.643Z,191.85
2022-10-01T14:57:46.742Z,183.43
2022-10-01T15:00:16.873Z,188.48
2022-10-01T15:02:50.424Z,182.85
2022-10-01T15:05:28.924Z,220.05
2022-10-01T15:07:57.346Z,152.40
2022-10-01T15:10:30.806Z,191.88
2022-10-01T15:12:59.148Z,254.38
2022-10-01T15:15:43.577Z,148.85
2022-10-01T15:18:14.934Z,160.10
2022-10-01T15:20:58.229Z,136.70
2022-10-01T15:23:29.191Z,108.30
2022-10-01T15:25:59.079Z,109.50
2022-10-01T15:28:31.611Z,126.45
2022-10-01T15:31:01.351Z,121.60
2022-10-01T15:33:33.699Z,95.47
2022-10-01T15:36:03.578Z,119.78
2022-10-01T15:38:32.623Z,128.70
2022-10-01T15:41:26.623Z,183.30
2022-10-01T15:43:52.001Z,184.02
2022-10-01T15:46:35.601Z,263.85
2022-10-01T15:49:12.432Z,212.05
2022-10-01T15:52:10.150Z,146.57
2022-10-01T15:54:39.910Z,145.73
2022-10-01T15:57:22.401Z,140.63
2022-10-01T15:59:59.310Z,151.77
2022-10-01T16:02:28.910Z,150.32
2022-10-01T16:05:07.809Z,143.90
2022-10-01T16:07:51.020Z,97.00
2022-10-01T16:10:41.183Z,180.43
2022-10-01T16:13:29.615Z,295.52
2022-10-01T16:16:15.581Z,131.38
2022-10-01T16:18:52.750Z,68.97
2022-10-01T16:21:24.146Z,109.47
2022-10-01T16:24:02.586Z,92.85
2022-10-01T16:26:32.693Z,126.13
2022-10-01T16:29:03.016Z,92.20
2022-10-01T16:31:35.535Z,89.07
2022-10-01T16:34:13.031Z,83.93
2022-10-01T16:36:45.770Z,68.20
2022-10-01T16:39:15.612Z,125.28
2022-10-01T16:41:56.609Z,101.15
2022-10-01T16:44:37.814Z,95.97
2022-10-01T16:47:16.885Z,96.43
2022-10-01T16:49:47.484Z,103.00
2022-10-01T16:52:17.050Z,116.05
2022-10-01T16:54:45.581Z,101.10
2022-10-01T16:57:15.649Z,101.43
2022-10-01T16:59:54.607Z,99.60
2022-10-01T17:02:28.284Z,117.53
2022-10-01T17:05:01.934Z,104.05
2022-10-01T17:07:42.311Z,105.20
2022-10-01T17:10:10.803Z,97.05
2022-10-01T17:12:40.137Z,96.28
2022-10-01T17:15:13.390Z,90.47
2022-10-01T17:17:57.680Z,86.41
2022-10-01T17:20:32.016Z,63.95
2022-10-01T17:23:00.968Z,74.85
2022-10-01T17:25:34.670Z,79.20
2022-10-01T17:28:06.257Z,93.36
2022-10-01T17:30:35.040Z,86.15
2022-10-01T17:33:03.531Z,91.55
2022-10-01T17:35:31.929Z,61.30
2022-10-01T17:38:00.339Z,58.88
2022-10-01T17:40:28.816Z,86.70
2022-10-01T17:42:57.223Z,79.80
2022-10-01T17:45:25.586Z,59.58
2022-10-01T17:47:54.158Z,59.22
2022-10-01T17:50:23.992Z,51.03
2022-10-01T17:52:52.502Z,57.03
2022-10-01T17:55:23.984Z,53.63
2022-10-01T17:57:52.856Z,53.75
2022-10-01T18:00:21.289Z,33.83
2022-10-01T18:02:50.400Z,28.63
2022-10-01T18:05:18.968Z,32.70
2022-10-01T18:07:47.518Z,31.50
2022-10-01T18:10:15.859Z,30.92
2022-10-01T18:12:44.518Z,32.30
2022-10-01T18:15:14.207Z,35.47
2022-10-01T18:17:43.778Z,30.42
2022-10-01T18:20:20.804Z,27.53
2022-10-01T18:22:49.668Z,29.45
2022-10-01T18:25:23.163Z,26.98
2022-10-01T18:28:01.750Z,30.77
2022-10-01T18:30:35.253Z,25.17
2022-10-01T18:33:11.106Z,37.13
2022-10-01T18:35:44.142Z,29.05
2022-10-01T18:38:21.036Z,26.67
2022-10-01T18:41:05.320Z,23.83
2022-10-01T18:43:35.010Z,24.95
2022-10-01T18:46:20.856Z,14.70
2022-10-01T18:48:49.237Z,20.54
2022-10-01T18:51:28.754Z,17.05
2022-10-01T18:54:21.296Z,16.92
2022-10-01T18:57:03.058Z,20.13
2022-10-01T18:59:50.118Z,19.80
2022-10-01T19:02:24.818Z,18.17
2022-10-01T19:05:12.311Z,17.05
2022-10-01T19:07:54.448Z,17.17
2022-10-01T19:10:25.950Z,21.38
2022-10-01T19:13:09.269Z,23.88
2022-10-01T19:15:52.942Z,22.73
2022-10-01T19:18:40.323Z,24.40
2022-10-01T19:21:08.921Z,22.00
2022-10-01T19:23:37.223Z,22.00
2022-10-01T19:26:05.547Z,19.77
2022-10-01T19:28:52.239Z,22.00
2022-10-01T19:31:25.779Z,20.05
2022-10-01T19:34:17.663Z,24.90
2022-10-01T19:36:55.622Z,21.75
2022-10-01T19:39:33.240Z,17.83
2022-10-01T19:42:07.245Z,14.38
2022-10-01T19:44:41.452Z,16.02
2022-10-01T19:47:28.313Z,9.82
2022-10-01T19:49:58.165Z,15.80
2022-10-01T19:52:27.415Z,12.30
2022-10-01T19:54:59.110Z,13.45
2022-10-01T19:57:28.846Z,16.55
2022-10-01T20:00:17.812Z,18.27
2022-10-01T20:03:17.483Z,14.10
2022-10-01T20:05:53.454Z,14.88
2022-10-01T20:08:34.426Z,17.55
2022-10-01T20:11:05.791Z,12.80
2022-10-01T20:13:39.264Z,13.43
2022-10-01T20:16:07.990Z,13.15
2022-10-01T20:18:52.109Z,12.00
2022-10-01T20:21:30.184Z,13.43
2022-10-01T20:24:09.657Z,11.73
2022-10-01T20:26:41.293Z,9.73
2022-10-01T20:29:22.521Z,8.98
2022-10-01T20:32:03.626Z,9.80
2022-10-01T20:34:40.937Z,6.75
2022-10-01T20:37:15.204Z,7.85
2022-10-01T20:39:56.325Z,9.27
2022-10-01T20:42:26.909Z,9.68
2022-10-01T20:44:56.630Z,9.93
2022-10-01T20:47:28.250Z,7.88
2022-10-01T20:50:09.402Z,9.98
2022-10-01T20:52:37.893Z,8.80
2022-10-01T20:55:10.174Z,9.60
2022-10-01T20:57:45.050Z,9.70
2022-10-01T21:00:23.749Z,6.63
2022-10-01T21:03:11.480Z,9.50
2022-10-01T21:05:44.338Z,10.80
2022-10-01T21:08:24.352Z,10.70
2022-10-01T21:10:54.257Z,11.30
2022-10-01T21:13:31.727Z,8.85
2022-10-01T21:18:57.481Z,11.05
2022-10-01T21:21:44.430Z,9.98
2022-10-01T21:24:22.129Z,10.55
2022-10-01T21:27:14.032Z,11.30
2022-10-01T21:29:57.741Z,10.27
2022-10-01T21:32:58.831Z,9.98
2022-10-01T21:35:32.832Z,9.35
2022-10-01T21:38:06.092Z,12.25
2022-10-01T21:40:50.088Z,9.28
2022-10-01T21:43:34.589Z,11.32
2022-10-01T21:46:23.981Z,9.95
2022-10-01T21:48:57.021Z,10.32
2022-10-01T21:51:51.491Z,9.60
2022-10-01T21:54:37.294Z,9.50
2022-10-01T21:57:22.789Z,10.65
2022-10-01T22:00:00.162Z,12.80
2022-10-01T22:02:50.641Z,8.15
2022-10-01T22:05:34.544Z,9.38
2022-10-01T22:08:15.358Z,8.40
2022-10-01T22:10:53.752Z,7.80
2022-10-01T22:13:33.829Z,7.03
2022-10-01T22:16:05.353Z,7.22
2022-10-01T22:18:37.638Z,7.35
2022-10-01T22:21:10.978Z,6.43
2022-10-01T22:23:45.651Z,7.15
2022-10-01T22:26:17.526Z,7.43
2022-10-01T22:28:48.646Z,9.93
2022-10-01T22:31:19.808Z,7.20
2022-10-01T22:33:55.688Z,7.28
2022-10-01T22:36:30.695Z,8.32
2022-10-01T22:39:11.642Z,8.90
2022-10-01T22:41:42.875Z,8.73
2022-10-01T22:44:19.691Z,7.15
2022-10-01T22:46:50.923Z,8.15
2022-10-01T22:49:26.133Z,7.97
2022-10-01T22:51:57.150Z,11.15
2022-10-01T22:54:34.714Z,7.95
2022-10-01T22:57:25.566Z,7.00
2022-10-01T23:02:22.067Z,7.20
2022-10-01T23:04:50.436Z,7.53
2022-10-01T23:07:25.010Z,7.80
2022-10-01T23:10:02.417Z,8.23
2022-10-01T23:12:40.430Z,8.40
2022-10-01T23:15:12.062Z,8.00
2022-10-01T23:17:40.422Z,8.45
2022-10-01T23:20:29.917Z,8.40
2022-10-01T23:23:16.124Z,7.55
2022-10-01T23:25:57.646Z,8.10
2022-10-01T23:28:45.726Z,8.65
2022-10-01T23:31:15.482Z,9.05
2022-10-01T23:33:46.869Z,8.35
2022-10-01T23:36:15.189Z,8.60
2022-10-01T23:38:51.795Z,9.35
2022-10-01T23:41:28.593Z,8.80
2022-10-01T23:44:01.430Z,8.13
2022-10-01T23:46:35.162Z,8.15
2022-10-01T23:49:05.668Z,8.02
2022-10-01T23:51:52.770Z,8.15
2022-10-01T23:59:33.126Z,8.50
